createdAt,value
2018-05-17T00:00:28.891Z,1013.66
2018-05-17T00:02:21.878Z,1013.63
2018-05-17T00:03:21.942Z,1013.67
2018-05-17T00:05:14.933Z,1013.64
2018-05-17T00:06:14.988Z,1013.64
2018-05-17T00:08:07.977Z,1013.62
2018-05-17T00:09:08.033Z,1013.64
2018-05-17T00:11:01.026Z,1013.69
2018-05-17T00:12:01.081Z,1013.66
2018-05-17T00:13:54.081Z,1013.77
2018-05-17T00:14:54.132Z,1013.75
2018-05-17T00:16:47.113Z,1013.68
2018-05-17T00:17:47.178Z,1013.71
2018-05-17T00:19:40.172Z,1013.73
2018-05-17T00:20:40.224Z,1013.72
2018-05-17T00:22:33.219Z,1013.79
2018-05-17T00:23:33.282Z,1013.77
2018-05-17T00:25:26.273Z,1013.76
2018-05-17T00:26:26.325Z,1013.81
2018-05-17T00:28:19.309Z,1013.75
2018-05-17T00:29:19.373Z,1013.74
2018-05-17T00:31:12.877Z,1013.72
2018-05-17T00:32:12.927Z,1013.75
2018-05-17T00:34:05.922Z,1013.72
2018-05-17T00:35:05.976Z,1013.68
2018-05-17T00:36:58.962Z,1013.77
2018-05-17T00:37:59.023Z,1013.77
2018-05-17T00:39:52.033Z,1013.69
2018-05-17T00:40:52.073Z,1013.69
2018-05-17T00:42:45.070Z,1013.73
2018-05-17T00:43:45.127Z,1013.72
2018-05-17T00:45:38.123Z,1013.72
2018-05-17T00:46:38.176Z,1013.73
2018-05-17T00:48:31.168Z,1013.75
2018-05-17T00:49:31.230Z,1013.74
2018-05-17T00:51:24.221Z,1013.75
2018-05-17T00:52:24.320Z,1013.71
2018-05-17T00:54:17.266Z,1013.75
2018-05-17T00:55:17.318Z,1013.73
2018-05-17T00:57:10.304Z,1013.73
2018-05-17T00:58:10.364Z,1013.73
2018-05-17T01:00:03.358Z,1013.74
2018-05-17T01:01:03.412Z,1013.75
2018-05-17T01:02:56.397Z,1013.73
2018-05-17T01:03:56.458Z,1013.73
2018-05-17T01:05:49.452Z,1013.71
2018-05-17T01:06:49.504Z,1013.73
2018-05-17T01:08:42.493Z,1013.71
2018-05-17T01:09:42.557Z,1013.71
2018-05-17T01:11:35.546Z,1013.71
2018-05-17T01:12:35.605Z,1013.70
2018-05-17T01:14:28.594Z,1013.74
2018-05-17T01:15:28.649Z,1013.74
2018-05-17T01:17:21.638Z,1013.80
2018-05-17T01:18:21.699Z,1013.79
2018-05-17T01:20:14.695Z,1013.82
2018-05-17T01:21:14.755Z,1013.82
2018-05-17T01:23:07.733Z,1013.82
2018-05-17T01:24:07.791Z,1013.85
2018-05-17T01:26:00.793Z,1013.84
2018-05-17T01:27:00.845Z,1013.87
2018-05-17T01:28:53.833Z,1013.86
2018-05-17T01:29:53.894Z,1013.89
2018-05-17T01:31:47.389Z,1013.90
2018-05-17T01:32:47.449Z,1013.95
2018-05-17T01:34:40.437Z,1013.94
2018-05-17T01:35:40.493Z,1013.94
2018-05-17T01:37:33.496Z,1013.93
2018-05-17T01:38:33.556Z,1013.95
2018-05-17T01:40:26.550Z,1013.95
2018-05-17T01:41:26.605Z,1013.95
2018-05-17T01:43:19.588Z,1014.01
2018-05-17T01:44:19.649Z,1014.01
2018-05-17T01:46:12.644Z,1013.99
2018-05-17T01:47:12.697Z,1014.00
2018-05-17T01:49:05.682Z,1014.02
2018-05-17T01:50:05.744Z,1014.06
2018-05-17T01:51:58.742Z,1014.06
2018-05-17T01:52:58.795Z,1014.02
2018-05-17T01:54:51.786Z,1014.05
2018-05-17T01:55:51.840Z,1014.03
2018-05-17T01:57:44.824Z,1014.05
2018-05-17T01:58:44.884Z,1014.02
2018-05-17T02:00:37.889Z,1014.01
2018-05-17T02:01:37.937Z,1014.01
2018-05-17T02:03:30.927Z,1014.00
2018-05-17T02:04:30.984Z,1014.04
2018-05-17T02:06:23.982Z,1014.03
2018-05-17T02:07:24.030Z,1014.06
2018-05-17T02:09:17.027Z,1014.09
2018-05-17T02:10:17.088Z,1014.09
2018-05-17T02:12:10.080Z,1014.07
2018-05-17T02:13:10.133Z,1014.10
2018-05-17T02:15:03.130Z,1014.09
2018-05-17T02:16:03.177Z,1014.07
2018-05-17T02:17:56.165Z,1014.06
2018-05-17T02:18:56.221Z,1014.10
2018-05-17T02:20:49.213Z,1014.12
2018-05-17T02:21:49.268Z,1014.10
2018-05-17T02:23:42.253Z,1014.16
2018-05-17T02:24:42.316Z,1014.16
2018-05-17T02:26:35.309Z,1014.18
2018-05-17T02:27:35.361Z,1014.19
2018-05-17T02:29:28.350Z,1014.16
2018-05-17T02:30:28.406Z,1014.16
2018-05-17T02:32:21.400Z,1014.15
2018-05-17T02:33:21.451Z,1014.21
2018-05-17T02:35:14.443Z,1014.18
2018-05-17T02:36:14.496Z,1014.20
2018-05-17T02:38:07.495Z,1014.18
2018-05-17T02:39:07.546Z,1014.18
2018-05-17T02:41:00.535Z,1014.18
2018-05-17T02:42:00.588Z,1014.16
2018-05-17T02:43:53.573Z,1014.21
2018-05-17T02:44:53.634Z,1014.23
2018-05-17T02:46:46.626Z,1014.24
2018-05-17T02:47:46.680Z,1014.22
2018-05-17T02:49:39.675Z,1014.25
2018-05-17T02:50:39.729Z,1014.26
2018-05-17T02:52:32.725Z,1014.24
2018-05-17T02:53:32.779Z,1014.23
2018-05-17T02:55:25.775Z,1014.25
2018-05-17T02:56:25.845Z,1014.24
2018-05-17T02:58:18.830Z,1014.24
2018-05-17T02:59:18.884Z,1014.24
2018-05-17T03:01:11.877Z,1014.30
2018-05-17T03:02:11.930Z,1014.31
2018-05-17T03:04:04.915Z,1014.29
2018-05-17T03:05:04.973Z,1014.32
2018-05-17T03:06:57.971Z,1014.34
2018-05-17T03:07:58.025Z,1014.34
2018-05-17T03:09:51.010Z,1014.33
2018-05-17T03:10:51.072Z,1014.31
2018-05-17T03:12:44.064Z,1014.32
2018-05-17T03:13:44.118Z,1014.37
2018-05-17T03:15:37.111Z,1014.33
2018-05-17T03:16:37.161Z,1014.29
2018-05-17T03:18:30.150Z,1014.34
2018-05-17T03:19:30.214Z,1014.33
2018-05-17T03:21:23.209Z,1014.34
2018-05-17T03:22:23.264Z,1014.33
2018-05-17T03:24:16.251Z,1014.37
2018-05-17T03:25:16.316Z,1014.38
2018-05-17T03:27:09.306Z,1014.33
2018-05-17T03:28:09.358Z,1014.34
2018-05-17T03:30:02.349Z,1014.32
2018-05-17T03:31:02.403Z,1014.35
2018-05-17T03:32:55.399Z,1014.32
2018-05-17T03:33:55.454Z,1014.34
2018-05-17T03:35:48.441Z,1014.36
2018-05-17T03:36:48.495Z,1014.36
2018-05-17T03:38:41.479Z,1014.40
2018-05-17T03:39:41.541Z,1014.41
2018-05-17T03:41:34.531Z,1014.35
2018-05-17T03:42:34.583Z,1014.35
2018-05-17T03:44:27.571Z,1014.31
2018-05-17T03:45:27.631Z,1014.32
2018-05-17T03:47:20.629Z,1014.29
2018-05-17T03:48:20.681Z,1014.25
2018-05-17T03:50:13.692Z,1014.31
2018-05-17T03:51:13.724Z,1014.31
2018-05-17T03:53:06.720Z,1014.30
2018-05-17T03:54:06.773Z,1014.30
2018-05-17T03:55:59.768Z,1014.32
2018-05-17T03:56:59.822Z,1014.28
2018-05-17T03:58:52.809Z,1014.30
2018-05-17T03:59:52.875Z,1014.34
2018-05-17T04:01:45.861Z,1014.33
2018-05-17T04:02:45.965Z,1014.31
2018-05-17T04:04:38.907Z,1014.34
2018-05-17T04:05:38.961Z,1014.35
2018-05-17T04:07:31.953Z,1014.34
2018-05-17T04:08:32.036Z,1014.29
2018-05-17T04:10:24.994Z,1014.33
2018-05-17T04:11:25.049Z,1014.31
2018-05-17T04:13:18.042Z,1014.30
2018-05-17T04:14:18.097Z,1014.35
2018-05-17T04:16:11.091Z,1014.39
2018-05-17T04:17:11.143Z,1014.34
2018-05-17T04:19:04.129Z,1014.40
2018-05-17T04:20:04.189Z,1014.37
2018-05-17T04:21:57.184Z,1014.35
2018-05-17T04:22:57.239Z,1014.42
2018-05-17T04:24:50.226Z,1014.43
2018-05-17T04:25:50.308Z,1014.41
2018-05-17T04:27:43.284Z,1014.41
2018-05-17T04:28:43.340Z,1014.46
2018-05-17T04:30:36.325Z,1014.46
2018-05-17T04:31:36.385Z,1014.46
2018-05-17T04:33:29.374Z,1014.45
2018-05-17T04:34:29.430Z,1014.45
2018-05-17T04:36:22.420Z,1014.48
2018-05-17T04:37:22.475Z,1014.56
2018-05-17T04:39:15.460Z,1014.54
2018-05-17T04:40:15.535Z,1014.57
2018-05-17T04:42:08.515Z,1014.56
2018-05-17T04:43:08.566Z,1014.56
2018-05-17T04:45:01.557Z,1014.54
2018-05-17T04:46:01.617Z,1014.57
2018-05-17T04:47:54.610Z,1014.57
2018-05-17T04:48:54.661Z,1014.55
2018-05-17T04:50:47.648Z,1014.54
2018-05-17T04:51:47.706Z,1014.58
2018-05-17T04:53:40.699Z,1014.49
2018-05-17T04:54:40.810Z,1014.49
2018-05-17T04:56:33.753Z,1014.52
2018-05-17T04:57:33.799Z,1014.53
2018-05-17T04:59:26.784Z,1014.52
2018-05-17T05:00:26.845Z,1014.56
2018-05-17T05:02:19.840Z,1014.54
2018-05-17T05:03:19.888Z,1014.55
2018-05-17T05:05:12.877Z,1014.59
2018-05-17T05:06:12.935Z,1014.53
2018-05-17T05:08:05.928Z,1014.56
2018-05-17T05:09:05.985Z,1014.62
2018-05-17T05:10:58.975Z,1014.57
2018-05-17T05:11:59.034Z,1014.54
2018-05-17T05:13:52.028Z,1014.61
2018-05-17T05:14:52.079Z,1014.63
2018-05-17T05:16:45.085Z,1014.64
2018-05-17T05:17:45.131Z,1014.64
2018-05-17T05:19:38.125Z,1014.71
2018-05-17T05:20:38.176Z,1014.71
2018-05-17T05:22:31.173Z,1014.68
2018-05-17T05:23:31.222Z,1014.70
2018-05-17T05:25:24.298Z,1014.68
2018-05-17T05:26:24.273Z,1014.68
2018-05-17T05:28:17.268Z,1014.68
2018-05-17T05:29:17.318Z,1014.70
2018-05-17T05:31:10.304Z,1014.74
2018-05-17T05:32:10.366Z,1014.74
2018-05-17T05:34:03.358Z,1014.73
2018-05-17T05:35:03.411Z,1014.74
2018-05-17T05:36:56.404Z,1014.78
2018-05-17T05:37:56.454Z,1014.79
2018-05-17T05:39:49.450Z,1014.79
2018-05-17T05:40:49.511Z,1014.84
2018-05-17T05:42:42.510Z,1014.78
2018-05-17T05:43:42.563Z,1014.83
2018-05-17T05:45:35.549Z,1014.79
2018-05-17T05:46:35.610Z,1014.83
2018-05-17T05:48:28.611Z,1014.84
2018-05-17T05:49:28.666Z,1014.84
2018-05-17T05:51:21.648Z,1014.82
2018-05-17T05:52:21.708Z,1014.86
2018-05-17T05:54:14.732Z,1014.86
2018-05-17T05:55:14.754Z,1014.90
2018-05-17T05:57:07.753Z,1014.91
2018-05-17T05:58:07.811Z,1014.87
2018-05-17T06:00:00.801Z,1014.96
2018-05-17T06:01:00.855Z,1014.88
2018-05-17T06:02:53.850Z,1014.94
2018-05-17T06:03:53.904Z,1014.95
2018-05-17T06:05:46.891Z,1014.98
2018-05-17T06:06:46.946Z,1014.96
2018-05-17T06:08:41.444Z,1014.97
2018-05-17T06:09:41.499Z,1014.98
2018-05-17T06:11:34.489Z,1014.97
2018-05-17T06:12:34.551Z,1014.98
2018-05-17T06:14:27.543Z,1014.93
2018-05-17T06:15:27.598Z,1014.92
2018-05-17T06:17:20.652Z,1014.88
2018-05-17T06:18:20.646Z,1014.96
2018-05-17T06:20:13.632Z,1014.95
2018-05-17T06:21:13.698Z,1014.94
2018-05-17T06:23:06.693Z,1014.98
2018-05-17T06:24:06.749Z,1014.98
2018-05-17T06:25:59.739Z,1015.03
2018-05-17T06:26:59.797Z,1015.03
2018-05-17T06:28:52.788Z,1015.05
2018-05-17T06:29:52.847Z,1015.01
2018-05-17T06:31:46.336Z,1015.05
2018-05-17T06:32:46.400Z,1015.06
2018-05-17T06:34:39.394Z,1015.04
2018-05-17T06:35:39.449Z,1015.09
2018-05-17T06:37:32.524Z,1015.07
2018-05-17T06:38:32.497Z,1015.12
2018-05-17T06:40:25.487Z,1015.08
2018-05-17T06:41:25.548Z,1015.06
2018-05-17T06:43:18.545Z,1014.99
2018-05-17T06:44:18.602Z,1015.01
2018-05-17T06:46:11.590Z,1014.99
2018-05-17T06:47:11.651Z,1014.99
2018-05-17T06:49:04.653Z,1015.02
2018-05-17T06:50:04.709Z,1015.06
2018-05-17T06:51:57.727Z,1015.12
2018-05-17T06:52:57.754Z,1015.43
2018-05-17T06:54:50.754Z,1015.57
2018-05-17T06:55:50.810Z,1015.31
2018-05-17T06:57:43.810Z,1015.45
2018-05-17T06:58:43.867Z,1015.35
2018-05-17T07:00:36.869Z,1015.41
2018-05-17T07:01:36.929Z,1015.30
2018-05-17T07:03:29.924Z,1015.53
2018-05-17T07:04:29.982Z,1015.49
2018-05-17T07:06:22.976Z,1015.28
2018-05-17T07:07:23.038Z,1015.25
2018-05-17T07:09:16.040Z,1015.22
2018-05-17T07:10:16.099Z,1015.24
2018-05-17T07:12:09.095Z,1015.27
2018-05-17T07:13:09.159Z,1015.19
2018-05-17T07:15:02.161Z,1015.14
2018-05-17T07:16:02.221Z,1015.17
2018-05-17T07:17:55.320Z,1015.18
2018-05-17T07:18:55.312Z,1015.20
2018-05-17T07:20:48.306Z,1015.22
2018-05-17T07:21:48.370Z,1015.44
2018-05-17T07:23:41.369Z,1015.79
2018-05-17T07:24:41.424Z,1015.90
2018-05-17T07:26:34.416Z,1015.86
2018-05-17T07:27:34.481Z,1015.86
2018-05-17T07:29:27.480Z,1015.96
2018-05-17T07:30:27.540Z,1015.65
2018-05-17T07:32:21.046Z,1016.05
2018-05-17T07:33:21.115Z,1016.02
2018-05-17T07:35:14.123Z,1016.12
2018-05-17T07:36:14.185Z,1016.03
2018-05-17T07:38:07.198Z,1016.09
2018-05-17T07:39:07.258Z,1016.10
2018-05-17T07:41:00.266Z,1016.08
2018-05-17T07:42:00.331Z,1016.11
2018-05-17T07:43:53.348Z,1016.16
2018-05-17T07:44:53.414Z,1016.20
2018-05-17T07:46:46.482Z,1016.28
2018-05-17T07:47:46.503Z,1015.66
2018-05-17T07:49:39.524Z,1015.60
2018-05-17T07:50:39.601Z,1015.55
2018-05-17T07:52:32.600Z,1015.52
2018-05-17T07:53:32.672Z,1015.51
2018-05-17T07:55:25.690Z,1015.48
2018-05-17T07:56:25.756Z,1015.57
2018-05-17T07:58:18.783Z,1015.55
2018-05-17T07:59:18.841Z,1015.56
2018-05-17T08:01:11.849Z,1015.53
2018-05-17T08:02:11.914Z,1015.51
2018-05-17T08:04:04.923Z,1015.50
2018-05-17T08:05:04.986Z,1015.49
2018-05-17T08:06:57.991Z,1015.56
2018-05-17T08:07:58.058Z,1015.57
2018-05-17T08:09:51.065Z,1015.61
2018-05-17T08:10:51.127Z,1015.62
2018-05-17T08:12:44.131Z,1015.64
2018-05-17T08:13:44.198Z,1015.61
2018-05-17T08:15:37.209Z,1015.60
2018-05-17T08:16:37.271Z,1015.58
2018-05-17T08:18:30.275Z,1015.62
2018-05-17T08:19:30.335Z,1015.67
2018-05-17T08:21:23.334Z,1015.79
2018-05-17T08:22:23.400Z,1015.75
2018-05-17T08:24:16.403Z,1015.80
2018-05-17T08:25:16.465Z,1016.29
2018-05-17T08:27:09.460Z,1016.39
2018-05-17T08:28:09.531Z,1015.81
2018-05-17T08:30:02.536Z,1016.05
2018-05-17T08:31:02.605Z,1015.79
2018-05-17T08:32:55.601Z,1015.66
2018-05-17T08:33:55.669Z,1015.69
2018-05-17T08:35:48.678Z,1015.80
2018-05-17T08:36:48.816Z,1016.22
2018-05-17T08:38:41.753Z,1016.10
2018-05-17T08:39:41.814Z,1015.79
2018-05-17T08:41:34.822Z,1016.49
2018-05-17T08:42:34.903Z,1016.37
2018-05-17T08:44:27.899Z,1016.13
2018-05-17T08:45:27.964Z,1016.16
2018-05-17T08:47:20.979Z,1016.12
2018-05-17T08:48:21.055Z,1016.09
2018-05-17T08:50:14.093Z,1016.13
2018-05-17T08:51:14.143Z,1016.11
2018-05-17T08:53:07.156Z,1016.09
2018-05-17T08:54:07.230Z,1016.06
2018-05-17T08:56:00.254Z,1016.04
2018-05-17T08:57:00.322Z,1016.08
2018-05-17T08:58:53.350Z,1015.79
2018-05-17T08:59:53.414Z,1016.02
2018-05-17T09:01:46.434Z,1016.11
2018-05-17T09:02:46.509Z,1015.81
2018-05-17T09:04:39.532Z,1016.08
2018-05-17T09:05:39.597Z,1016.13
2018-05-17T09:07:32.616Z,1015.78
2018-05-17T09:08:32.689Z,1015.79
2018-05-17T09:10:25.730Z,1015.88
2018-05-17T09:11:25.796Z,1016.17
2018-05-17T09:13:18.791Z,1015.81
2018-05-17T09:14:18.872Z,1015.80
2018-05-17T09:16:11.885Z,1015.75
2018-05-17T09:17:11.953Z,1015.97
2018-05-17T09:19:04.969Z,1016.02
2018-05-17T09:20:05.126Z,1016.05
2018-05-17T09:21:58.043Z,1016.08
2018-05-17T09:22:59.067Z,1016.01
2018-05-17T09:24:51.135Z,1015.81
2018-05-17T09:25:51.201Z,1015.72
2018-05-17T09:27:44.212Z,1015.70
2018-05-17T09:28:44.285Z,1015.76
2018-05-17T09:30:37.302Z,1015.80
2018-05-17T09:31:37.363Z,1015.71
2018-05-17T09:33:30.375Z,1015.65
2018-05-17T09:34:30.444Z,1015.64
2018-05-17T09:36:23.458Z,1015.75
2018-05-17T09:37:23.522Z,1015.70
2018-05-17T09:39:16.532Z,1015.73
2018-05-17T09:40:16.595Z,1015.71
2018-05-17T09:42:09.597Z,1015.62
2018-05-17T09:43:09.666Z,1015.71
2018-05-17T09:45:02.674Z,1015.64
2018-05-17T09:46:02.736Z,1015.65
2018-05-17T09:47:55.742Z,1015.61
2018-05-17T09:48:55.806Z,1015.57
2018-05-17T09:50:48.819Z,1015.61
2018-05-17T09:51:48.883Z,1015.56
2018-05-17T09:53:41.887Z,1015.53
2018-05-17T09:54:41.950Z,1015.58
2018-05-17T09:56:34.954Z,1015.52
2018-05-17T09:57:35.015Z,1015.45
2018-05-17T09:59:28.020Z,1015.53
2018-05-17T10:00:28.079Z,1015.51
2018-05-17T10:02:21.078Z,1015.43
2018-05-17T10:03:21.144Z,1015.49
2018-05-17T10:05:14.150Z,1015.44
2018-05-17T10:06:14.207Z,1015.52
2018-05-17T10:08:07.204Z,1015.46
2018-05-17T10:09:07.270Z,1015.44
2018-05-17T10:11:00.280Z,1015.46
2018-05-17T10:12:00.339Z,1015.39
2018-05-17T10:13:53.334Z,1015.41
2018-05-17T10:14:53.401Z,1015.41
2018-05-17T10:16:46.417Z,1015.35
2018-05-17T10:17:46.463Z,1015.36
2018-05-17T10:19:39.486Z,1015.31
2018-05-17T10:20:39.534Z,1015.27
2018-05-17T10:22:32.534Z,1015.30
2018-05-17T10:23:32.597Z,1015.25
2018-05-17T10:25:25.600Z,1015.24
2018-05-17T10:26:25.661Z,1015.23
2018-05-17T10:28:18.663Z,1015.23
2018-05-17T10:29:18.719Z,1015.19
2018-05-17T10:31:11.725Z,1015.19
2018-05-17T10:32:11.777Z,1015.20
2018-05-17T10:34:04.771Z,1015.19
2018-05-17T10:35:04.838Z,1015.25
2018-05-17T10:36:57.843Z,1015.18
2018-05-17T10:37:57.897Z,1015.19
2018-05-17T10:39:50.898Z,1015.24
2018-05-17T10:40:50.961Z,1015.19
2018-05-17T10:42:43.961Z,1015.09
2018-05-17T10:43:44.018Z,1015.18
2018-05-17T10:45:37.082Z,1015.15
2018-05-17T10:46:37.079Z,1015.16
2018-05-17T10:48:30.080Z,1015.09
2018-05-17T10:49:30.137Z,1015.03
2018-05-17T10:51:23.139Z,1015.08
2018-05-17T10:52:23.193Z,1015.11
2018-05-17T10:54:16.190Z,1015.11
2018-05-17T10:55:16.252Z,1015.13
2018-05-17T10:57:09.255Z,1015.10
2018-05-17T10:58:09.315Z,1015.09
2018-05-17T11:00:02.305Z,1015.08
2018-05-17T11:01:02.368Z,1015.09
2018-05-17T11:02:55.369Z,1015.02
2018-05-17T11:03:55.427Z,1015.05
2018-05-17T11:05:48.426Z,1015.09
2018-05-17T11:06:48.483Z,1015.08
2018-05-17T11:08:41.476Z,1015.08
2018-05-17T11:09:41.542Z,1015.08
2018-05-17T11:11:34.542Z,1015.04
2018-05-17T11:12:34.616Z,1014.99
2018-05-17T11:14:27.592Z,1014.95
2018-05-17T11:15:27.655Z,1015.01
2018-05-17T11:17:20.660Z,1015.03
2018-05-17T11:18:20.714Z,1015.07
2018-05-17T11:20:13.707Z,1015.09
2018-05-17T11:21:13.773Z,1015.03
2018-05-17T11:23:06.774Z,1015.01
2018-05-17T11:24:06.831Z,1014.99
2018-05-17T11:25:59.837Z,1015.02
2018-05-17T11:26:59.890Z,1015.02
2018-05-17T11:28:52.881Z,1015.02
2018-05-17T11:29:52.951Z,1014.98
2018-05-17T11:31:46.456Z,1014.98
2018-05-17T11:32:46.510Z,1015.00
2018-05-17T11:34:39.502Z,1014.96
2018-05-17T11:35:39.567Z,1014.98
2018-05-17T11:37:32.571Z,1015.01
2018-05-17T11:38:32.714Z,1014.99
2018-05-17T11:40:25.622Z,1014.95
2018-05-17T11:41:25.686Z,1014.96
2018-05-17T11:43:18.687Z,1014.94
2018-05-17T11:44:18.743Z,1014.91
2018-05-17T11:46:11.756Z,1014.86
2018-05-17T11:47:11.814Z,1014.85
2018-05-17T11:49:04.805Z,1014.91
2018-05-17T11:50:04.869Z,1014.88
2018-05-17T11:51:57.872Z,1014.89
2018-05-17T11:52:57.928Z,1014.86
2018-05-17T11:54:50.916Z,1014.84
2018-05-17T11:55:50.988Z,1014.83
2018-05-17T11:57:43.985Z,1014.77
2018-05-17T11:58:44.040Z,1014.87
2018-05-17T12:00:37.033Z,1014.89
2018-05-17T12:01:37.202Z,1014.84
2018-05-17T12:03:30.099Z,1014.86
2018-05-17T12:04:30.215Z,1014.89
2018-05-17T12:06:23.154Z,1014.89
2018-05-17T12:07:23.230Z,1014.80
2018-05-17T12:09:16.207Z,1014.77
2018-05-17T12:10:16.267Z,1014.86
2018-05-17T12:12:09.283Z,1014.80
2018-05-17T12:13:09.327Z,1014.77
2018-05-17T12:15:02.310Z,1014.81
2018-05-17T12:16:02.382Z,1014.76
2018-05-17T12:17:55.391Z,1014.83
2018-05-17T12:18:55.436Z,1014.80
2018-05-17T12:20:48.430Z,1014.74
2018-05-17T12:21:48.497Z,1014.73
2018-05-17T12:23:41.492Z,1014.78
2018-05-17T12:24:41.550Z,1014.81
2018-05-17T12:26:34.559Z,1014.72
2018-05-17T12:27:34.608Z,1014.67
2018-05-17T12:29:27.601Z,1014.70
2018-05-17T12:30:27.666Z,1014.64
2018-05-17T12:32:22.180Z,1014.67
2018-05-17T12:33:22.233Z,1014.64
2018-05-17T12:35:15.223Z,1014.66
2018-05-17T12:36:15.289Z,1014.65
2018-05-17T12:38:08.294Z,1014.58
2018-05-17T12:39:08.348Z,1014.56
2018-05-17T12:41:01.348Z,1014.58
2018-05-17T12:42:01.404Z,1014.61
2018-05-17T12:43:54.406Z,1014.59
2018-05-17T12:44:54.470Z,1014.61
2018-05-17T12:46:47.464Z,1014.62
2018-05-17T12:47:47.519Z,1014.64
2018-05-17T12:49:40.511Z,1014.65
2018-05-17T12:50:40.575Z,1014.58
2018-05-17T12:52:33.572Z,1014.64
2018-05-17T12:53:33.630Z,1014.61
2018-05-17T12:55:26.630Z,1014.60
2018-05-17T12:56:26.697Z,1014.68
2018-05-17T12:58:19.696Z,1014.61
2018-05-17T12:59:19.746Z,1014.63
2018-05-17T13:01:12.739Z,1014.60
2018-05-17T13:02:12.804Z,1014.63
2018-05-17T13:04:05.802Z,1014.61
2018-05-17T13:05:05.860Z,1014.59
2018-05-17T13:06:58.873Z,1014.58
2018-05-17T13:07:58.917Z,1014.62
2018-05-17T13:09:51.910Z,1014.51
2018-05-17T13:10:51.973Z,1014.52
2018-05-17T13:12:44.973Z,1014.49
2018-05-17T13:13:45.032Z,1014.54
2018-05-17T13:15:38.025Z,1014.52
2018-05-17T13:16:38.089Z,1014.61
2018-05-17T13:18:31.089Z,1014.57
2018-05-17T13:19:31.147Z,1014.55
2018-05-17T13:21:24.175Z,1014.47
2018-05-17T13:22:24.200Z,1014.46
2018-05-17T13:24:17.206Z,1014.47
2018-05-17T13:25:17.259Z,1014.43
2018-05-17T13:27:10.258Z,1014.37
2018-05-17T13:28:10.317Z,1014.43
2018-05-17T13:30:03.308Z,1014.49
2018-05-17T13:31:03.373Z,1014.36
2018-05-17T13:32:56.375Z,1014.41
2018-05-17T13:33:56.430Z,1014.42
2018-05-17T13:35:49.422Z,1014.42
2018-05-17T13:36:49.493Z,1014.43
2018-05-17T13:38:42.485Z,1014.36
2018-05-17T13:39:42.542Z,1014.37
2018-05-17T13:41:35.535Z,1014.33
2018-05-17T13:42:35.604Z,1014.37
2018-05-17T13:44:28.603Z,1014.41
2018-05-17T13:45:28.658Z,1014.42
2018-05-17T13:47:21.659Z,1014.38
2018-05-17T13:48:21.716Z,1014.36
2018-05-17T13:50:14.730Z,1014.33
2018-05-17T13:51:14.772Z,1014.35
2018-05-17T13:53:07.786Z,1014.32
2018-05-17T13:54:07.838Z,1014.36
2018-05-17T13:56:00.836Z,1014.30
2018-05-17T13:57:00.903Z,1014.33
2018-05-17T13:58:53.942Z,1014.39
2018-05-17T13:59:53.956Z,1014.40
2018-05-17T14:01:46.975Z,1014.30
2018-05-17T14:02:47.163Z,1014.30
2018-05-17T14:04:40.015Z,1014.26
2018-05-17T14:05:40.084Z,1014.20
2018-05-17T14:07:33.074Z,1014.25
2018-05-17T14:08:33.128Z,1014.27
2018-05-17T14:10:26.130Z,1014.29
2018-05-17T14:11:26.192Z,1014.25
2018-05-17T14:13:19.192Z,1014.13
2018-05-17T14:14:19.247Z,1014.18
2018-05-17T14:16:12.243Z,1014.20
2018-05-17T14:17:12.307Z,1014.19
2018-05-17T14:19:05.306Z,1014.17
2018-05-17T14:20:05.365Z,1014.21
2018-05-17T14:21:58.369Z,1014.18
2018-05-17T14:22:58.661Z,1014.19
2018-05-17T14:24:51.422Z,1014.28
2018-05-17T14:25:51.477Z,1014.21
2018-05-17T14:27:44.518Z,1014.26
2018-05-17T14:28:44.577Z,1014.23
2018-05-17T14:30:37.545Z,1014.30
2018-05-17T14:31:37.676Z,1014.33
2018-05-17T14:33:30.614Z,1014.34
2018-05-17T14:34:30.666Z,1014.31
2018-05-17T14:36:23.663Z,1014.33
2018-05-17T14:37:23.737Z,1014.30
2018-05-17T14:39:16.726Z,1014.32
2018-05-17T14:40:16.780Z,1014.34
2018-05-17T14:42:09.772Z,1014.35
2018-05-17T14:43:09.835Z,1014.30
2018-05-17T14:45:02.833Z,1014.31
2018-05-17T14:46:02.962Z,1014.35
2018-05-17T14:47:55.974Z,1014.40
2018-05-17T14:48:55.947Z,1014.39
2018-05-17T14:50:48.938Z,1014.40
2018-05-17T14:51:49.000Z,1014.38
2018-05-17T14:53:42.002Z,1014.41
2018-05-17T14:54:42.060Z,1014.40
2018-05-17T14:56:35.053Z,1014.47
2018-05-17T14:57:35.285Z,1014.45
2018-05-17T14:59:28.119Z,1014.47
2018-05-17T15:00:28.173Z,1014.44
2018-05-17T15:02:21.167Z,1014.37
2018-05-17T15:03:21.358Z,1014.42
2018-05-17T15:05:14.233Z,1014.42
2018-05-17T15:06:14.288Z,1014.40
2018-05-17T15:08:07.293Z,1014.41
2018-05-17T15:09:07.347Z,1014.45
2018-05-17T15:11:00.338Z,1014.42
2018-05-17T15:12:00.406Z,1014.41
2018-05-17T15:13:53.475Z,1014.39
2018-05-17T15:14:53.458Z,1014.39
2018-05-17T15:16:46.452Z,1014.36
2018-05-17T15:17:46.515Z,1014.33
2018-05-17T15:19:39.522Z,1014.36
2018-05-17T15:20:39.571Z,1014.37
2018-05-17T15:22:32.565Z,1014.38
2018-05-17T15:23:32.627Z,1014.38
2018-05-17T15:25:25.645Z,1014.43
2018-05-17T15:26:25.684Z,1014.36
2018-05-17T15:28:18.682Z,1014.36
2018-05-17T15:29:19.022Z,1014.39
2018-05-17T15:31:11.732Z,1014.37
2018-05-17T15:32:11.797Z,1014.38
2018-05-17T15:34:04.795Z,1014.42
2018-05-17T15:35:04.851Z,1014.42
2018-05-17T15:36:57.846Z,1014.35
2018-05-17T15:37:57.908Z,1014.36
2018-05-17T15:39:50.911Z,1014.35
2018-05-17T15:40:50.971Z,1014.35
2018-05-17T15:42:43.960Z,1014.40
2018-05-17T15:43:45.027Z,1014.36
2018-05-17T15:45:37.032Z,1014.36
2018-05-17T15:46:37.090Z,1014.38
2018-05-17T15:48:30.945Z,1014.36
2018-05-17T15:49:30.998Z,1014.40
2018-05-17T15:51:23.994Z,1014.37
2018-05-17T15:52:24.056Z,1014.41
2018-05-17T15:54:19.939Z,1014.38
2018-05-17T15:55:20.003Z,1014.40
2018-05-17T15:57:13.016Z,1014.32
2018-05-17T15:58:13.078Z,1014.34
2018-05-17T16:00:06.078Z,1014.35
2018-05-17T16:01:06.134Z,1014.42
2018-05-17T16:03:00.656Z,1014.44
2018-05-17T16:04:00.714Z,1014.45
2018-05-17T16:05:53.724Z,1014.41
2018-05-17T16:06:54.741Z,1014.41
2018-05-17T16:08:46.791Z,1014.43
2018-05-17T16:09:46.841Z,1014.42
2018-05-17T16:11:39.826Z,1014.40
2018-05-17T16:12:39.890Z,1014.45
2018-05-17T16:14:32.904Z,1014.40
2018-05-17T16:15:33.016Z,1014.44
2018-05-17T16:17:25.943Z,1014.43
2018-05-17T16:18:26.013Z,1014.44
2018-05-17T16:20:19.005Z,1014.42
2018-05-17T16:21:19.069Z,1014.39
2018-05-17T16:23:12.052Z,1014.40
2018-05-17T16:24:12.116Z,1014.40
2018-05-17T16:26:05.115Z,1014.51
2018-05-17T16:27:05.171Z,1014.42
2018-05-17T16:28:58.175Z,1014.44
2018-05-17T16:29:58.233Z,1014.41
2018-05-17T16:31:52.026Z,1014.46
2018-05-17T16:32:52.091Z,1014.47
2018-05-17T16:34:45.090Z,1014.42
2018-05-17T16:35:45.144Z,1014.43
2018-05-17T16:37:38.144Z,1014.44
2018-05-17T16:38:38.208Z,1014.45
2018-05-17T16:40:31.206Z,1014.45
2018-05-17T16:41:31.263Z,1014.40
2018-05-17T16:43:24.252Z,1014.41
2018-05-17T16:44:24.317Z,1014.40
2018-05-17T16:46:17.317Z,1014.41
2018-05-17T16:47:17.371Z,1014.43
2018-05-17T16:49:10.372Z,1014.49
2018-05-17T16:50:10.430Z,1014.45
2018-05-17T16:52:03.459Z,1014.50
2018-05-17T16:53:03.541Z,1014.51
2018-05-17T16:54:56.492Z,1014.48
2018-05-17T16:55:56.548Z,1014.53
2018-05-17T16:57:49.544Z,1014.53
2018-05-17T16:58:49.667Z,1014.54
2018-05-17T17:00:42.698Z,1014.61
2018-05-17T17:01:42.748Z,1014.58
2018-05-17T17:03:35.655Z,1014.59
2018-05-17T17:04:35.724Z,1014.61
2018-05-17T17:06:28.724Z,1014.58
2018-05-17T17:07:28.781Z,1014.60
2018-05-17T17:09:21.780Z,1014.61
2018-05-17T17:10:21.839Z,1014.59
2018-05-17T17:12:14.830Z,1014.63
2018-05-17T17:13:14.891Z,1014.62
2018-05-17T17:15:07.901Z,1014.60
2018-05-17T17:16:07.948Z,1014.65
2018-05-17T17:18:00.993Z,1014.66
2018-05-17T17:19:01.011Z,1014.65
2018-05-17T17:20:54.010Z,1014.65
2018-05-17T17:21:54.066Z,1014.65
2018-05-17T17:23:47.133Z,1014.70
2018-05-17T17:24:47.123Z,1014.66
2018-05-17T17:26:40.141Z,1014.67